Time;durP1;ratioP1;P1;durP2;ratioP2;P2;SDS_P1;SDS_P2;PMS_P1;PMS_P2;Temp;Humidity;BMP_temperature;BMP_pressure;BME280_temperature;BME280_humidity;BME280_pressure;Samples;Min_cycle;Max_cycle;Signal;HPM_P1;HPM_P2
2022/10/22 00:02:18;;;;;;;4.45;2.60;;;;;;;8.47;87.45;149785.19;1781146;79;21858;-66
2022/10/22 00:04:42;;;;;;;8.30;3.30;;;;;;;8.45;87.13;149780.02;1803635;79;21453;-66
2022/10/22 00:07:09;;;;;;;6.15;3.77;;;;;;;8.42;86.87;149772.25;1799042;79;21073;-66
2022/10/22 00:09:38;;;;;;;6.85;3.77;;;;;;;8.36;86.33;149756.72;1791653;79;21426;-66
2022/10/22 00:12:06;;;;;;;8.20;3.98;;;;;;;8.30;86.12;149742.45;1803676;79;21027;-66
2022/10/22 00:14:32;;;;;;;8.78;4.20;;;;;;;8.24;85.95;149728.19;1782583;79;22716;-66
2022/10/22 00:16:59;;;;;;;9.30;4.25;;;;;;;8.20;85.81;149717.84;1797754;79;21245;-67
2022/10/22 00:19:27;;;;;;;9.35;4.60;;;;;;;8.16;85.79;149707.48;1806544;79;21065;-66
2022/10/22 00:21:54;;;;;;;10.68;4.70;;;;;;;8.07;85.92;149684.14;1800461;78;21012;-66
2022/10/22 00:24:20;;;;;;;9.65;4.65;;;;;;;8.00;86.17;149667.34;1802303;78;21063;-66
2022/10/22 00:26:47;;;;;;;7.60;4.03;;;;;;;7.96;86.53;149658.27;1808561;78;21353;-65
2022/10/22 00:29:18;;;;;;;7.87;4.03;;;;;;;7.90;86.84;149642.73;1795295;78;21201;-66
2022/10/22 00:31:48;;;;;;;10.75;4.42;;;;;;;7.83;87.19;149624.56;1802086;78;20928;-66
2022/10/22 00:34:12;;;;;;;7.92;4.42;;;;;;;7.76;87.34;149607.78;1806004;78;21004;-67
2022/10/22 00:36:40;;;;;;;10.30;4.60;;;;;;;7.71;87.60;149596.11;1799793;78;20960;-65
2022/10/22 00:39:07;;;;;;;7.85;4.12;;;;;;;7.65;88.16;149579.27;1796000;78;21131;-67
2022/10/22 00:41:34;;;;;;;7.80;4.40;;;;;;;7.58;88.45;149562.42;1802234;78;21008;-67
2022/10/22 00:44:03;;;;;;;6.85;4.03;;;;;;;7.55;88.76;149554.66;1806730;78;21037;-66
2022/10/22 00:46:31;;;;;;;6.95;3.83;;;;;;;7.53;89.07;149550.80;1793682;78;21069;-66
2022/10/22 00:49:00;;;;;;;7.08;4.10;;;;;;;7.52;89.47;149546.91;1793859;78;21033;-66
2022/10/22 00:51:30;;;;;;;7.22;3.98;;;;;;;7.50;89.82;149541.72;1802378;78;21534;-66
2022/10/22 00:54:01;;;;;;;5.75;3.85;;;;;;;7.48;90.05;149537.81;1794237;78;21029;-65
2022/10/22 00:56:28;;;;;;;5.90;3.58;;;;;;;7.45;90.32;149530.06;1793718;78;21494;-65
2022/10/22 00:58:57;;;;;;;8.35;4.17;;;;;;;7.43;90.70;149524.88;1793447;79;21019;-64
2022/10/22 01:01:27;;;;;;;9.03;3.92;;;;;;;7.39;90.98;149515.80;1796657;78;21657;-68
2022/10/22 01:03:54;;;;;;;8.18;4.60;;;;;;;7.38;91.15;149511.95;1809768;78;21734;-66
2022/10/22 01:06:29;;;;;;;7.10;4.45;;;;;;;7.35;91.28;149505.45;1795304;78;21467;-65
2022/10/22 01:09:04;;;;;;;6.40;4.17;;;;;;;7.33;91.38;149500.28;1793745;78;21024;-67
2022/10/22 01:12:04;;;;;;;7.45;3.95;;;;;;;7.31;91.72;149495.11;1798306;78;21408;-67
2022/10/22 01:15:11;;;;;;;7.20;3.80;;;;;;;7.29;91.87;149489.94;1793626;78;21053;-66
2022/10/22 01:18:07;;;;;;;7.67;3.55;;;;;;;7.25;92.07;149479.59;1807848;78;21916;-63
2022/10/22 01:20:54;;;;;;;5.40;3.72;;;;;;;7.23;92.19;149475.69;1798535;78;21102;-63
2022/10/22 01:24:01;;;;;;;6.25;3.72;;;;;;;7.21;92.41;149469.25;1802213;79;21311;-65
2022/10/22 01:27:08;;;;;;;6.70;4.03;;;;;;;7.17;92.65;149461.44;1799857;79;21027;-65
2022/10/22 01:30:01;;;;;;;6.28;3.92;;;;;;;7.14;92.89;149453.67;1800537;78;21063;-66
2022/10/22 01:32:28;;;;;;;6.05;3.98;;;;;;;7.13;93.31;149449.81;1751704;79;21254;-65
2022/10/22 01:35:00;;;;;;;7.47;4.12;;;;;;;7.11;93.53;149445.91;1805514;79;21493;-66
2022/10/22 01:37:29;;;;;;;7.92;3.90;;;;;;;7.10;93.73;149443.33;1806862;78;21091;-66
2022/10/22 01:39:58;;;;;;;8.53;4.87;;;;;;;7.07;93.97;149435.56;1798304;79;21015;-66
2022/10/22 01:42:24;;;;;;;8.60;4.25;;;;;;;7.08;94.23;149436.89;1800324;79;21461;-66
2022/10/22 01:44:51;;;;;;;7.70;4.10;;;;;;;7.05;94.48;149430.41;1804070;79;21069;-66
2022/10/22 01:47:26;;;;;;;7.28;4.60;;;;;;;7.05;94.72;149430.41;1794005;79;21085;-66
2022/10/22 01:50:00;;;;;;;;;;;;;;;7.05;94.95;149430.41;1786292;79;21008;-66
2022/10/22 01:53:00;;;;;;;6.47;4.20;;;;;;;7.05;95.21;149429.08;1802149;79;20177;-66
2022/10/22 01:55:50;;;;;;;5.85;4.10;;;;;;;7.05;95.48;149429.08;1800263;79;21450;-64
2022/10/22 01:58:53;;;;;;;6.47;4.30;;;;;;;7.03;95.76;149426.50;1791389;79;21195;-62
2022/10/22 02:01:44;;;;;;;8.05;4.08;;;;;;;7.02;95.96;149423.91;1801416;79;21059;-63
2022/10/22 02:04:59;;;;;;;6.97;4.40;;;;;;;7.02;96.34;149423.91;1793246;79;21074;-63
2022/10/22 02:07:31;;;;;;;6.42;4.28;;;;;;;7.03;96.76;149425.22;1794513;79;21003;-63
2022/10/22 02:10:02;;;;;;;8.23;3.90;;;;;;;7.04;97.14;149427.81;1790502;79;22094;-63
2022/10/22 02:12:29;;;;;;;7.53;4.45;;;;;;;7.05;97.34;149430.41;1784035;79;21936;-63
2022/10/22 02:14:55;;;;;;;6.58;4.50;;;;;;;7.05;97.58;149430.41;1779795;79;21028;-63
2022/10/22 02:17:24;;;;;;;6.12;4.35;;;;;;;7.07;97.77;149435.56;1784782;79;21000;-62
2022/10/22 02:20:05;;;;;;;5.25;3.92;;;;;;;7.06;97.94;149432.98;1789955;79;21020;-62
2022/10/22 02:22:32;;;;;;;5.67;4.00;;;;;;;7.08;98.10;149438.16;1798336;79;21017;-61
2022/10/22 02:24:59;;;;;;;6.30;3.90;;;;;;;7.09;98.27;149439.47;1802720;78;21262;-63
2022/10/22 02:27:37;;;;;;;5.95;3.87;;;;;;;7.10;98.48;149443.33;1802976;78;21455;-62
2022/10/22 02:30:12;;;;;;;6.35;4.05;;;;;;;7.12;98.76;149447.23;1802814;78;21100;-63
2022/10/22 02:33:04;;;;;;;5.60;3.55;;;;;;;7.15;99.03;149456.25;1807468;78;21036;-63
2022/10/22 02:35:31;;;;;;;4.83;3.47;;;;;;;7.20;99.18;149466.66;1811658;78;21015;-63
2022/10/22 02:37:59;;;;;;;5.25;3.27;;;;;;;7.24;99.46;149477.00;1809324;78;21807;-62
2022/10/22 02:40:26;;;;;;;7.08;3.70;;;;;;;7.29;99.77;149491.25;1816475;78;21008;-66
2022/10/22 02:42:53;;;;;;;4.67;3.17;;;;;;;7.35;99.86;149504.19;1807722;78;21067;-66
2022/10/22 02:45:20;;;;;;;7.83;3.33;;;;;;;7.40;99.84;149518.39;1806972;78;21499;-66
2022/10/22 02:47:47;;;;;;;7.60;3.08;;;;;;;7.45;99.98;149531.38;1803402;78;21438;-66
2022/10/22 02:50:16;;;;;;;5.17;2.77;;;;;;;7.51;100.00;149544.31;1811317;78;21055;-66
2022/10/22 02:52:43;;;;;;;7.12;2.85;;;;;;;7.58;100.00;149562.42;1802817;78;20981;-66
2022/10/22 02:55:10;;;;;;;4.53;2.98;;;;;;;7.65;100.00;149580.58;1811268;78;21104;-66
2022/10/22 02:57:37;;;;;;;4.53;2.83;;;;;;;7.70;100.00;149593.52;1802932;79;20970;-66
2022/10/22 03:00:06;;;;;;;8.15;3.40;;;;;;;7.78;100.00;149611.62;1802672;78;21020;-66
2022/10/22 03:02:34;;;;;;;5.20;3.20;;;;;;;7.87;100.00;149634.97;1807468;78;21697;-66
2022/10/22 03:05:01;;;;;;;4.30;3.05;;;;;;;7.97;100.00;149659.58;1811353;78;21048;-66
2022/10/22 03:07:28;;;;;;;4.40;2.87;;;;;;;8.06;100.00;149681.55;1807101;78;21508;-66
2022/10/22 03:09:55;;;;;;;4.72;3.08;;;;;;;8.16;100.00;149707.48;1813413;78;21023;-65
2022/10/22 03:12:23;;;;;;;5.03;3.00;;;;;;;8.22;100.00;149723.02;1807065;78;21006;-67
2022/10/22 03:14:50;;;;;;;4.78;3.08;;;;;;;8.27;100.00;149735.97;1811433;78;21440;-64
2022/10/22 03:17:18;;;;;;;4.30;2.98;;;;;;;8.33;100.00;149748.95;1806660;78;21070;-67
2022/10/22 03:19:45;;;;;;;5.60;3.05;;;;;;;8.38;100.00;149761.89;1811487;78;20920;-66
2022/10/22 03:22:16;;;;;;;4.67;3.05;;;;;;;8.45;100.00;149780.02;1803127;78;21052;-68
2022/10/22 03:24:45;;;;;;;4.70;2.70;;;;;;;8.52;99.99;149798.23;1806387;79;21072;-67
2022/10/22 03:27:14;;;;;;;6.20;2.98;;;;;;;8.58;99.89;149813.78;1802566;79;21788;-67
2022/10/22 03:29:41;;;;;;;7.70;3.12;;;;;;;8.66;99.86;149831.91;1783513;79;21026;-66
2022/10/22 03:32:08;;;;;;;8.70;3.27;;;;;;;8.74;99.68;149852.66;1791511;79;21542;-66
2022/10/22 03:34:34;;;;;;;4.58;2.80;;;;;;;8.81;99.56;149869.47;1806259;79;20916;-63
2022/10/22 03:37:01;;;;;;;5.12;2.83;;;;;;;8.87;99.45;149886.33;1812835;78;21099;-63
2022/10/22 03:39:29;;;;;;;7.25;3.45;;;;;;;8.98;99.40;149912.28;1800028;79;21478;-62
2022/10/22 03:41:56;;;;;;;4.78;2.58;;;;;;;9.08;99.16;149938.19;1794413;79;20998;-63
2022/10/22 03:44:23;;;;;;;8.10;2.98;;;;;;;9.17;98.89;149961.53;1784007;79;21490;-62
2022/10/22 03:46:49;;;;;;;3.85;2.80;;;;;;;9.25;98.73;149979.67;1788427;79;21106;-62
2022/10/22 03:49:21;;;;;;;6.28;3.20;;;;;;;9.35;98.42;150004.31;1790132;78;22246;-64
2022/10/22 03:51:49;;;;;;;5.92;2.95;;;;;;;9.43;98.11;150026.36;1783580;79;23240;-65
2022/10/22 03:54:16;;;;;;;4.80;2.87;;;;;;;9.53;97.82;150049.67;1783302;79;21069;-64
2022/10/22 03:56:43;;;;;;;6.50;2.30;;;;;;;9.63;97.52;150074.31;1784217;79;21527;-64
2022/10/22 03:59:11;;;;;;;3.72;2.17;;;;;;;9.71;97.21;150095.05;1802863;78;20975;-64
2022/10/22 04:01:39;;;;;;;5.53;2.62;;;;;;;9.79;97.00;150114.50;1802705;79;21001;-62
2022/10/22 04:04:05;;;;;;;9.73;3.00;;;;;;;9.87;96.76;150135.28;1800851;79;21084;-64
2022/10/22 04:06:38;;;;;;;6.12;2.42;;;;;;;9.96;96.45;150158.61;1796496;79;21053;-64
2022/10/22 04:09:05;;;;;;;6.08;2.17;;;;;;;10.03;96.18;150176.75;1790611;79;20905;-63
2022/10/22 04:11:37;;;;;;;8.75;2.20;;;;;;;10.09;96.11;150191.03;1791675;79;21011;-62
2022/10/22 04:14:12;;;;;;;5.37;2.30;;;;;;;10.17;96.02;150210.50;1791106;79;21035;-63
2022/10/22 04:16:46;;;;;;;3.12;1.90;;;;;;;10.22;95.98;150223.47;1803035;79;21033;-63
2022/10/22 04:19:15;;;;;;;5.53;2.27;;;;;;;10.31;96.13;150245.53;1792056;79;20960;-64
2022/10/22 04:21:44;;;;;;;4.20;2.25;;;;;;;10.39;96.26;150265.00;1804295;78;21103;-64
2022/10/22 04:24:12;;;;;;;3.47;2.35;;;;;;;10.51;96.12;150296.20;1802385;79;21013;-64
2022/10/22 04:26:38;;;;;;;3.33;1.92;;;;;;;10.59;95.97;150316.95;1792206;79;21109;-66
2022/10/22 04:29:07;;;;;;;4.45;1.90;;;;;;;10.70;95.90;150342.88;1781046;79;21226;-64
2022/10/22 04:31:35;;;;;;;3.67;1.77;;;;;;;10.84;95.56;150379.23;1784233;79;21046;-64
2022/10/22 04:34:02;;;;;;;4.65;2.00;;;;;;;10.96;95.27;150407.81;1806256;79;21334;-64
2022/10/22 04:36:30;;;;;;;5.30;2.25;;;;;;;11.07;94.94;150436.36;1800152;79;21477;-64
2022/10/22 04:39:00;;;;;;;5.12;1.95;;;;;;;11.18;94.37;150464.94;1796686;79;21597;-63
2022/10/22 04:41:31;;;;;;;7.87;2.02;;;;;;;11.31;93.93;150496.06;1780585;79;21309;-64
2022/10/22 04:43:58;;;;;;;3.58;1.85;;;;;;;11.42;93.22;150524.66;1797564;79;21062;-64
2022/10/22 04:46:28;;;;;;;3.22;2.02;;;;;;;11.53;92.58;150550.61;1781708;79;21502;-64
2022/10/22 04:48:54;;;;;;;4.72;2.10;;;;;;;11.62;92.06;150574.02;1805786;79;20901;-64
2022/10/22 04:51:23;;;;;;;4.40;1.70;;;;;;;11.71;91.54;150597.38;1804009;79;21372;-64
2022/10/22 04:53:50;;;;;;;4.97;2.10;;;;;;;11.80;90.94;150618.12;1781549;79;21750;-64
2022/10/22 04:56:24;;;;;;;4.03;2.10;;;;;;;11.86;90.51;150635.03;1806768;79;21008;-64
2022/10/22 04:58:59;;;;;;;9.75;1.72;;;;;;;11.95;90.10;150657.11;1798573;79;20999;-63
2022/10/22 05:01:31;;;;;;;5.60;1.90;;;;;;;12.01;89.60;150672.73;1802086;79;20997;-63
2022/10/22 05:04:01;;;;;;;3.80;2.00;;;;;;;12.10;89.03;150693.55;1787373;79;21072;-63
2022/10/22 05:06:30;;;;;;;4.40;1.67;;;;;;;12.16;88.74;150709.13;1786974;79;21234;-64
2022/10/22 05:08:59;;;;;;;3.67;2.00;;;;;;;12.23;88.20;150727.30;1781465;79;20974;-64
2022/10/22 05:11:30;;;;;;;10.00;1.90;;;;;;;12.29;87.61;150741.59;1791833;79;21059;-64
2022/10/22 05:13:59;;;;;;;4.60;1.80;;;;;;;12.36;87.33;150759.78;1803007;79;21007;-64
2022/10/22 05:16:30;;;;;;;7.92;1.72;;;;;;;12.43;87.06;150776.67;1800751;79;21129;-64
2022/10/22 05:18:58;;;;;;;8.10;1.90;;;;;;;12.51;86.69;150797.50;1800684;79;21203;-64
2022/10/22 05:21:28;;;;;;;5.28;1.62;;;;;;;12.56;86.28;150810.48;1803104;79;22155;-64
2022/10/22 05:24:04;;;;;;;5.33;1.47;;;;;;;12.65;86.08;150831.25;1781351;79;21022;-64
2022/10/22 05:26:33;;;;;;;4.55;1.90;;;;;;;12.72;85.68;150850.77;1781413;79;21491;-69
2022/10/22 05:28:59;;;;;;;3.05;1.45;;;;;;;12.83;85.36;150878.06;1797363;79;21489;-69
2022/10/22 05:31:28;;;;;;;5.37;1.70;;;;;;;12.92;84.98;150898.83;1783055;79;21110;-69
2022/10/22 05:33:56;;;;;;;3.20;1.55;;;;;;;13.00;84.54;150919.66;1781139;79;21452;-68
2022/10/22 05:36:23;;;;;;;6.33;1.80;;;;;;;13.07;84.06;150937.84;1787409;79;21012;-69
2022/10/22 05:38:50;;;;;;;3.60;1.70;;;;;;;13.16;83.60;150961.28;1806898;79;21150;-69
2022/10/22 05:41:23;;;;;;;3.33;1.55;;;;;;;13.24;83.13;150979.45;1806260;79;21470;-69
2022/10/22 05:43:50;;;;;;;3.30;1.27;;;;;;;13.31;82.20;150998.97;1805788;79;21482;-69
2022/10/22 05:46:21;;;;;;;3.27;1.50;;;;;;;13.36;81.51;151010.64;1769221;79;21008;-69
2022/10/22 05:48:56;;;;;;;6.97;1.50;;;;;;;13.40;81.35;151021.08;1790597;79;21064;-69
2022/10/22 05:51:36;;;;;;;4.80;1.65;;;;;;;13.45;80.95;151032.80;1781440;79;20969;-68
2022/10/22 05:54:19;;;;;;;2.17;1.35;;;;;;;13.48;80.67;151040.59;1780485;79;21022;-69
2022/10/22 05:56:59;;;;;;;2.05;1.05;;;;;;;13.52;80.07;151051.03;1793499;79;21063;-68
2022/10/22 05:59:26;;;;;;;6.95;1.40;;;;;;;13.53;79.15;151052.31;1801030;79;21063;-69
2022/10/22 06:01:55;;;;;;;3.05;1.15;;;;;;;13.54;78.79;151056.23;1792210;79;21426;-69
2022/10/22 06:04:23;;;;;;;9.13;1.52;;;;;;;13.55;78.24;151057.50;1798979;79;21039;-69
2022/10/22 06:06:51;;;;;;;7.87;1.70;;;;;;;13.55;77.94;151057.50;1789550;79;21113;-69
2022/10/22 06:09:24;;;;;;;4.03;1.52;;;;;;;13.58;77.85;151065.31;1786174;79;21831;-71
2022/10/22 06:11:53;;;;;;;5.42;1.30;;;;;;;13.60;77.58;151070.55;1788827;79;21043;-71
2022/10/22 06:14:21;;;;;;;3.42;1.47;;;;;;;13.63;77.43;151077.03;1780822;79;21029;-71
2022/10/22 06:16:48;;;;;;;5.17;1.45;;;;;;;13.68;77.21;151090.02;1799231;79;21359;-71
2022/10/22 06:19:17;;;;;;;5.03;1.20;;;;;;;13.72;76.53;151101.73;1797750;79;21071;-72
2022/10/22 06:21:45;;;;;;;6.70;1.40;;;;;;;13.78;76.10;151114.72;1794376;79;21013;-71
2022/10/22 06:24:15;;;;;;;2.72;1.15;;;;;;;13.83;75.52;151127.77;1796376;78;21034;-71
2022/10/22 06:26:44;;;;;;;4.37;1.20;;;;;;;13.85;74.85;151132.97;1802743;78;21522;-71
2022/10/22 06:29:11;;;;;;;4.65;1.10;;;;;;;13.88;74.10;151140.77;1796073;78;21312;-71
2022/10/22 06:31:44;;;;;;;7.08;1.35;;;;;;;13.89;73.74;151143.38;1802333;78;21859;-71
2022/10/22 06:34:13;;;;;;;5.28;1.25;;;;;;;13.94;73.81;151156.38;1794022;78;21258;-71
2022/10/22 06:36:41;;;;;;;4.15;2.02;;;;;;;13.96;73.76;151161.56;1797951;78;21026;-71
2022/10/22 06:39:12;;;;;;;2.30;1.20;;;;;;;13.96;73.47;151161.56;1794205;79;20961;-71
2022/10/22 06:41:39;;;;;;;3.98;1.30;;;;;;;13.96;73.31;151161.56;1782616;78;21067;-71
2022/10/22 06:44:06;;;;;;;3.30;1.12;;;;;;;13.97;73.29;151164.16;1796473;78;21165;-71
2022/10/22 06:46:33;;;;;;;3.52;1.30;;;;;;;13.98;73.11;151166.77;1813476;78;21214;-72
2022/10/22 06:49:01;;;;;;;5.35;1.47;;;;;;;13.99;73.03;151169.36;1801797;78;21473;-71
2022/10/22 06:51:29;;;;;;;2.98;1.20;;;;;;;14.00;73.24;151171.97;1793798;79;21074;-71
2022/10/22 06:53:56;;;;;;;3.92;1.12;;;;;;;14.01;73.39;151174.56;1798749;78;21044;-71
2022/10/22 06:56:30;;;;;;;2.37;1.10;;;;;;;14.03;73.37;151178.48;1805632;78;21464;-71
2022/10/22 06:58:59;;;;;;;4.00;1.42;;;;;;;14.05;73.36;151183.69;1795949;78;21912;-71
2022/10/22 07:01:29;;;;;;;5.90;1.40;;;;;;;14.09;72.88;151192.81;1793780;79;21079;-71
2022/10/22 07:03:56;;;;;;;5.22;1.42;;;;;;;14.10;72.85;151195.41;1794344;78;20989;-73
2022/10/22 07:06:24;;;;;;;3.35;1.42;;;;;;;14.13;72.91;151204.48;1793709;78;21083;-72
2022/10/22 07:08:54;;;;;;;2.65;1.17;;;;;;;14.15;73.15;151208.41;1797887;78;21564;-70
2022/10/22 07:11:23;;;;;;;6.70;1.10;;;;;;;14.18;72.78;151216.20;1795773;78;21315;-73
2022/10/22 07:13:50;;;;;;;5.90;1.40;;;;;;;14.21;72.62;151224.00;1798984;78;21069;-71
2022/10/22 07:16:17;;;;;;;4.55;1.70;;;;;;;14.24;72.84;151231.81;1802762;78;21098;-70
2022/10/22 07:18:45;;;;;;;5.83;1.75;;;;;;;14.29;72.97;151244.84;1798146;78;21031;-70
2022/10/22 07:21:13;;;;;;;5.45;1.40;;;;;;;14.33;73.03;151253.92;1798175;78;20964;-70
2022/10/22 07:23:39;;;;;;;2.90;1.50;;;;;;;14.35;73.25;151257.84;1797814;78;21850;-68
2022/10/22 07:26:13;;;;;;;4.40;1.50;;;;;;;14.39;73.75;151268.25;1794186;78;22079;-70
2022/10/22 07:28:40;;;;;;;5.30;1.40;;;;;;;14.43;74.05;151278.66;1795859;78;21098;-70
2022/10/22 07:31:08;;;;;;;3.08;1.40;;;;;;;14.47;74.31;151289.05;1803520;78;21023;-70
2022/10/22 07:33:35;;;;;;;4.50;2.02;;;;;;;14.51;74.27;151299.50;1806663;78;20975;-68
2022/10/22 07:36:05;;;;;;;3.30;1.67;;;;;;;14.52;74.36;151302.11;1797331;78;21799;-70
2022/10/22 07:38:33;;;;;;;3.60;1.37;;;;;;;14.54;74.72;151307.30;1793565;78;21077;-69
2022/10/22 07:41:00;;;;;;;3.17;1.50;;;;;;;14.58;74.63;151316.38;1793840;78;21459;-70
2022/10/22 07:43:26;;;;;;;3.47;1.52;;;;;;;14.66;74.52;151335.91;1797269;78;21004;-68
2022/10/22 07:45:59;;;;;;;1.70;1.10;;;;;;;14.74;74.61;151356.81;1804113;78;21104;-70
2022/10/22 07:48:23;;;;;;;8.28;1.42;;;;;;;14.81;74.72;151375.02;1793368;78;21859;-72
2022/10/22 07:50:50;;;;;;;8.38;1.32;;;;;;;14.86;74.64;151388.03;1801147;78;21143;-70
2022/10/22 07:53:17;;;;;;;1.72;1.10;;;;;;;14.87;74.38;151390.63;1804722;78;21076;-72
2022/10/22 07:55:49;;;;;;;2.77;1.12;;;;;;;14.87;74.12;151390.63;1807314;78;20886;-70
2022/10/22 07:58:23;;;;;;;4.00;1.37;;;;;;;14.87;74.36;151390.63;1806181;78;22108;-70
2022/10/22 08:00:55;;;;;;;3.27;1.50;;;;;;;14.86;74.89;151388.03;1794307;79;20930;-67
2022/10/22 08:03:22;;;;;;;2.58;1.30;;;;;;;14.87;74.75;151389.34;1801931;78;21025;-64
2022/10/22 08:05:51;;;;;;;5.33;1.55;;;;;;;14.87;74.47;151389.34;1798224;78;21560;-64
2022/10/22 08:08:18;;;;;;;6.47;1.50;;;;;;;14.84;74.43;151382.81;1795360;78;21453;-64
2022/10/22 08:10:46;;;;;;;8.33;1.37;;;;;;;14.82;74.64;151377.62;1798192;78;21426;-68
2022/10/22 08:13:14;;;;;;;8.95;1.70;;;;;;;14.79;74.85;151369.81;1806632;78;21258;-66
2022/10/22 08:15:42;;;;;;;5.05;1.47;;;;;;;14.80;75.17;151372.41;1799884;78;21037;-67
2022/10/22 08:18:09;;;;;;;7.92;1.62;;;;;;;14.82;75.53;151377.62;1810565;78;20976;-66
2022/10/22 08:20:35;;;;;;;8.40;1.60;;;;;;;14.85;75.67;151384.14;1792778;78;21120;-65
2022/10/22 08:23:02;;;;;;;4.70;1.37;;;;;;;14.87;75.59;151390.63;1807970;78;21577;-66
2022/10/22 08:25:31;;;;;;;6.42;1.50;;;;;;;14.94;75.54;151406.28;1802960;78;21245;-68
2022/10/22 08:27:58;;;;;;;5.87;2.02;;;;;;;15.00;75.52;151423.16;1807074;78;21557;-66
2022/10/22 08:30:26;;;;;;;3.92;1.27;;;;;;;15.11;75.48;151449.22;1801218;78;21093;-67
2022/10/22 08:32:53;;;;;;;7.08;1.92;;;;;;;15.20;75.43;151472.64;1798951;78;20917;-65
2022/10/22 08:35:21;;;;;;;9.25;2.30;;;;;;;15.30;74.95;151498.70;1802398;78;21464;-67
2022/10/22 08:37:48;;;;;;;5.12;1.80;;;;;;;15.35;74.42;151510.38;1793828;79;21250;-68
2022/10/22 08:40:26;;;;;;;3.12;1.65;;;;;;;15.38;74.12;151518.23;1797945;78;20949;-67
2022/10/22 08:43:34;;;;;;;4.40;1.67;;;;;;;15.42;73.86;151527.31;1802422;78;20920;-67
2022/10/22 08:46:24;;;;;;;4.20;1.60;;;;;;;15.44;73.74;151533.84;1793654;78;21041;-67
2022/10/22 08:48:53;;;;;;;5.95;1.52;;;;;;;15.46;73.63;151537.73;1798210;78;20996;-67
2022/10/22 08:51:28;;;;;;;7.62;1.52;;;;;;;15.52;74.05;151552.06;1757177;78;21245;-66
2022/10/22 08:54:26;;;;;;;2.58;1.37;;;;;;;15.54;74.06;151557.27;1806896;78;21459;-66
2022/10/22 08:57:07;;;;;;;5.03;1.45;;;;;;;15.55;73.86;151559.88;1798230;78;21608;-68
2022/10/22 08:59:58;;;;;;;6.33;1.50;;;;;;;15.52;73.77;151552.06;1769434;78;21081;-68
2022/10/22 09:02:52;;;;;;;8.48;2.10;;;;;;;15.50;73.38;151548.19;1785769;78;21021;-66
2022/10/22 09:05:51;;;;;;;7.35;1.90;;;;;;;15.53;72.19;151554.66;1800363;78;22008;-66
2022/10/22 09:08:19;;;;;;;6.37;2.30;;;;;;;15.58;71.24;151567.67;1734437;82;21081;-66
2022/10/22 09:10:51;;;;;;;6.10;2.10;;;;;;;15.63;71.06;151579.41;1775085;78;20946;-67
2022/10/22 09:13:20;;;;;;;9.65;2.10;;;;;;;15.65;71.38;151584.62;1803336;78;21020;-67
2022/10/22 09:15:52;;;;;;;4.10;1.90;;;;;;;15.65;72.07;151585.94;1793765;79;21418;-67
2022/10/22 09:19:00;;;;;;;5.83;2.00;;;;;;;15.68;71.90;151593.75;1792675;79;21137;-67
2022/10/22 09:21:44;;;;;;;2.85;1.70;;;;;;;15.68;72.09;151593.75;1800100;78;21020;-67
2022/10/22 09:24:14;;;;;;;8.13;1.50;;;;;;;15.68;72.36;151593.75;1809691;78;21066;-66
2022/10/22 09:26:41;;;;;;;4.03;1.82;;;;;;;15.72;72.86;151604.16;1798396;78;21057;-67
2022/10/22 09:29:21;;;;;;;4.00;1.52;;;;;;;15.74;72.64;151609.36;1807221;78;21039;-66
2022/10/22 09:31:48;;;;;;;4.65;1.40;;;;;;;15.75;72.82;151611.97;1798476;78;21856;-67
2022/10/22 09:34:17;;;;;;;8.25;2.30;;;;;;;15.76;73.08;151613.30;1802290;78;21042;-66
2022/10/22 09:36:44;;;;;;;7.58;1.52;;;;;;;15.79;72.79;151621.09;1798430;78;21482;-66
2022/10/22 09:39:26;;;;;;;2.80;1.42;;;;;;;15.83;72.57;151630.23;1800749;78;21037;-64
2022/10/22 09:41:52;;;;;;;5.75;1.90;;;;;;;15.89;72.31;151645.91;1805223;78;21561;-64
2022/10/22 09:44:19;;;;;;;3.72;1.70;;;;;;;15.92;72.31;151653.70;1799877;78;21042;-64
2022/10/22 09:46:46;;;;;;;5.62;1.85;;;;;;;15.96;71.79;151662.84;1804448;78;20987;-65
2022/10/22 09:49:22;;;;;;;3.02;1.50;;;;;;;15.98;71.53;151668.05;1795940;78;22166;-65
2022/10/22 09:51:56;;;;;;;7.17;1.70;;;;;;;15.96;71.75;151664.13;1802233;78;21546;-65
2022/10/22 09:54:40;;;;;;;6.08;1.82;;;;;;;15.94;71.40;151657.64;1797813;78;20975;-65
2022/10/22 09:57:16;;;;;;;5.47;1.67;;;;;;;15.90;71.57;151649.78;1795732;78;21224;-64
2022/10/22 09:59:44;;;;;;;4.22;1.60;;;;;;;15.86;71.99;151639.31;1802108;78;20951;-65
2022/10/22 10:02:22;;;;;;;7.35;1.60;;;;;;;15.84;71.78;151632.84;1793892;79;21031;-65
2022/10/22 10:04:52;;;;;;;3.35;1.47;;;;;;;15.83;71.68;151630.23;1806300;78;20979;-67
2022/10/22 10:07:32;;;;;;;1.60;1.15;;;;;;;15.80;71.63;151623.70;1811022;78;21103;-67
2022/10/22 10:10:00;;;;;;;4.45;1.57;;;;;;;15.78;72.00;151617.17;1770879;79;21827;-66
2022/10/22 10:12:51;;;;;;;8.43;1.57;;;;;;;15.73;72.10;151606.77;1772212;78;20976;-66
2022/10/22 10:15:28;;;;;;;3.83;1.42;;;;;;;15.72;72.29;151602.87;1808729;78;21004;-66
2022/10/22 10:18:18;;;;;;;8.13;1.70;;;;;;;15.69;72.28;151595.03;1805958;78;21038;-66
2022/10/22 10:21:03;;;;;;;6.62;1.35;;;;;;;15.67;72.46;151591.14;1798025;78;20969;-65
2022/10/22 10:23:57;;;;;;;4.95;1.40;;;;;;;15.65;72.74;151585.94;1794143;78;21139;-67
2022/10/22 10:26:52;;;;;;;6.95;1.60;;;;;;;15.62;73.23;151578.12;1795170;78;21398;-67
2022/10/22 10:29:47;;;;;;;6.80;1.30;;;;;;;15.55;73.41;151559.88;1794375;78;21580;-65
2022/10/22 10:32:29;;;;;;;2.83;1.10;;;;;;;15.41;73.56;151526.05;1798158;78;21099;-65
2022/10/22 10:35:10;;;;;;;5.45;1.57;;;;;;;15.29;74.01;151496.09;1761196;80;21039;-65
2022/10/22 10:37:59;;;;;;;3.62;1.50;;;;;;;15.21;74.70;151473.97;1755471;80;21243;-66
2022/10/22 10:40:43;;;;;;;4.50;1.40;;;;;;;15.11;75.63;151450.50;1756652;80;21117;-67
2022/10/22 10:43:34;;;;;;;6.83;1.45;;;;;;;15.02;76.05;151427.09;1762309;80;21029;-67
2022/10/22 10:46:37;;;;;;;5.75;1.40;;;;;;;14.94;76.83;151406.28;1759520;80;21033;-66
2022/10/22 10:49:12;;;;;;;4.90;1.30;;;;;;;14.89;77.26;151394.55;1773029;79;20968;-65
2022/10/22 10:52:08;;;;;;;5.35;1.25;;;;;;;14.81;77.53;151375.02;1802407;78;21392;-66
2022/10/22 10:55:15;;;;;;;9.18;1.52;;;;;;;14.76;78.21;151362.02;1798165;78;25506;-67
2022/10/22 10:58:03;;;;;;;7.60;1.22;;;;;;;14.70;78.99;151346.31;1795734;78;21008;-63
2022/10/22 11:00:35;;;;;;;4.42;1.47;;;;;;;14.65;79.13;151334.63;1775097;78;21033;-64
2022/10/22 11:03:27;;;;;;;5.05;1.55;;;;;;;14.60;79.39;151322.91;1798969;78;21001;-64
2022/10/22 11:05:59;;;;;;;5.97;1.30;;;;;;;14.59;79.90;151319.03;1764003;79;21585;-64
2022/10/22 11:08:33;;;;;;;5.95;1.40;;;;;;;14.56;79.74;151311.19;1801676;78;21014;-64
2022/10/22 11:11:17;;;;;;;8.10;1.72;;;;;;;14.52;79.48;151302.11;1797336;78;21085;-63
2022/10/22 11:14:13;;;;;;;3.75;1.27;;;;;;;14.51;78.99;151298.19;1793407;78;20978;-63
2022/10/22 11:16:49;;;;;;;4.50;1.20;;;;;;;14.50;79.20;151295.58;1788273;78;21657;-64
2022/10/22 11:19:27;;;;;;;2.30;1.32;;;;;;;14.47;79.94;151289.05;1787731;78;21911;-64
2022/10/22 11:22:12;;;;;;;7.05;1.55;;;;;;;14.44;80.44;151282.58;1804510;78;22055;-63
2022/10/22 11:25:14;;;;;;;3.02;1.30;;;;;;;14.44;80.87;151281.25;1791795;79;21139;-64
2022/10/22 11:28:04;;;;;;;3.27;1.45;;;;;;;14.46;81.37;151286.45;1790841;78;20976;-63
2022/10/22 11:30:36;;;;;;;3.15;1.40;;;;;;;14.45;81.70;151285.17;1801297;78;21786;-64
2022/10/22 11:33:08;;;;;;;2.45;1.27;;;;;;;14.46;81.71;151286.45;1814577;78;21458;-64
2022/10/22 11:35:42;;;;;;;5.92;1.40;;;;;;;14.45;81.62;151285.17;1801898;78;21485;-64
2022/10/22 11:38:13;;;;;;;7.25;1.40;;;;;;;14.46;81.81;151287.78;1815251;78;21532;-64
2022/10/22 11:40:49;;;;;;;7.25;1.80;;;;;;;14.47;82.33;151290.38;1812649;78;21000;-64
2022/10/22 11:43:35;;;;;;;10.10;1.50;;;;;;;14.49;82.55;151294.30;1794113;78;20999;-64
2022/10/22 11:46:16;;;;;;;6.97;1.40;;;;;;;14.49;82.11;151294.30;1784883;78;21197;-64
2022/10/22 11:48:43;;;;;;;5.08;1.25;;;;;;;14.48;81.52;151291.70;1779793;79;21004;-64
2022/10/22 11:51:34;;;;;;;3.83;1.40;;;;;;;14.47;80.95;151289.05;1782627;78;21071;-65
2022/10/22 11:54:20;;;;;;;3.67;1.10;;;;;;;14.49;80.81;151292.97;1803786;78;21552;-62
2022/10/22 11:56:47;;;;;;;4.92;1.27;;;;;;;14.49;81.01;151294.30;1811701;78;21463;-63